Time;durP1;ratioP1;P1;durP2;ratioP2;P2;SDS_P1;SDS_P2;PMS_P1;PMS_P2;Temp;Humidity;BMP_temperature;BMP_pressure;BME280_temperature;BME280_humidity;BME280_pressure;Samples;Min_cycle;Max_cycle;Signal;HPM_P1;HPM_P2
2022/10/10 00:00:35;;;;;;;3.42;2.30;;;24.40;57.80;;;;;;5032390;28;20116;-69
2022/10/10 00:03:02;;;;;;;6.07;2.50;;;24.50;57.90;;;;;;5032389;28;20049;-70
2022/10/10 00:05:28;;;;;;;3.58;2.33;;;24.40;58.00;;;;;;5032563;28;20049;-69
2022/10/10 00:07:54;;;;;;;3.85;2.30;;;24.50;58.10;;;;;;5032573;28;20029;-69
2022/10/10 00:10:20;;;;;;;5.38;2.63;;;24.40;57.90;;;;;;5032434;28;20044;-70
2022/10/10 00:12:46;;;;;;;3.17;2.28;;;24.40;57.90;;;;;;5030943;28;20025;-69
2022/10/10 00:15:13;;;;;;;6.28;2.30;;;24.40;57.90;;;;;;5031856;28;20041;-68
2022/10/10 00:17:42;;;;;;;2.40;2.20;;;24.40;57.90;;;;;;5032452;28;20034;-69
2022/10/10 00:20:13;;;;;;;3.78;2.10;;;24.40;57.90;;;;;;5030889;28;20357;-68
2022/10/10 00:22:39;;;;;;;3.33;2.03;;;24.20;57.90;;;;;;5032302;28;20410;-69
2022/10/10 00:25:07;;;;;;;2.75;2.20;;;24.30;58.10;;;;;;5032250;28;20026;-69
2022/10/10 00:27:33;;;;;;;5.18;2.20;;;24.40;58.20;;;;;;5032262;28;20067;-69
2022/10/10 00:29:59;;;;;;;3.10;2.33;;;24.30;58.40;;;;;;5029746;28;20376;-68
2022/10/10 00:32:26;;;;;;;1.95;1.70;;;24.20;58.40;;;;;;5031615;28;20088;-69
2022/10/10 00:34:53;;;;;;;2.45;2.25;;;24.10;58.40;;;;;;5031749;28;20021;-69
2022/10/10 00:37:19;;;;;;;4.53;1.92;;;24.20;58.40;;;;;;5031845;28;20038;-68
2022/10/10 00:39:45;;;;;;;4.53;2.42;;;24.00;58.60;;;;;;5032003;28;20049;-67
2022/10/10 00:42:12;;;;;;;3.53;2.38;;;24.20;58.60;;;;;;5031634;28;20061;-69
2022/10/10 00:44:43;;;;;;;2.38;1.92;;;24.00;58.50;;;;;;5031038;28;20530;-68
2022/10/10 00:47:10;;;;;;;3.47;2.10;;;24.10;58.70;;;;;;5031573;28;20470;-70
2022/10/10 00:49:40;;;;;;;4.25;2.17;;;24.10;58.50;;;;;;5031647;28;20397;-69
2022/10/10 00:52:10;;;;;;;6.95;2.35;;;24.20;58.50;;;;;;5031326;28;20026;-69
2022/10/10 00:54:37;;;;;;;2.78;2.58;;;24.20;58.50;;;;;;5031823;28;20532;-69
2022/10/10 00:57:08;;;;;;;2.92;2.33;;;24.00;58.60;;;;;;5031496;28;20548;-68
2022/10/10 00:59:36;;;;;;;2.75;2.10;;;24.00;58.70;;;;;;5031285;28;20474;-68
2022/10/10 01:02:03;;;;;;;1.77;1.67;;;23.90;58.80;;;;;;5031446;28;20034;-69
2022/10/10 01:04:37;;;;;;;4.15;2.25;;;24.00;58.90;;;;;;5031400;28;20422;-69
2022/10/10 01:07:08;;;;;;;3.50;2.00;;;23.90;58.80;;;;;;5031335;28;20026;-69
2022/10/10 01:09:38;;;;;;;2.72;2.30;;;23.90;58.80;;;;;;5031398;28;20033;-68
2022/10/10 01:12:16;;;;;;;2.85;1.63;;;23.80;58.70;;;;;;5028357;28;20470;-69
2022/10/10 01:15:05;;;;;;;2.65;2.03;;;24.00;59.00;;;;;;5030511;28;20033;-69
2022/10/10 01:17:44;;;;;;;5.03;2.83;;;23.80;59.00;;;;;;5030238;28;20030;-69
2022/10/10 01:20:33;;;;;;;5.10;2.45;;;23.80;58.90;;;;;;5030593;28;20033;-69
2022/10/10 01:23:25;;;;;;;2.03;1.70;;;23.80;58.80;;;;;;5029107;28;20040;-69
2022/10/10 01:26:23;;;;;;;2.83;2.63;;;23.80;58.70;;;;;;4968983;28;20039;-69
2022/10/10 01:29:33;;;;;;;3.95;1.88;;;23.80;58.80;;;;;;4892924;29;20581;-69
2022/10/10 01:32:07;;;;;;;2.85;2.00;;;23.80;58.60;;;;;;4837309;29;20135;-69
2022/10/10 01:34:59;;;;;;;3.55;2.28;;;23.80;58.40;;;;;;4837626;29;20061;-68
2022/10/10 01:38:02;;;;;;;4.38;2.25;;;23.80;58.50;;;;;;4837544;29;20106;-69
2022/10/10 01:40:30;;;;;;;2.78;1.67;;;23.80;58.50;;;;;;4801213;29;20101;-68
2022/10/10 01:43:03;;;;;;;2.53;2.22;;;23.80;58.40;;;;;;4800070;29;20047;-69
2022/10/10 01:45:32;;;;;;;3.95;2.40;;;23.80;58.60;;;;;;4782820;30;20092;-69
2022/10/10 01:48:02;;;;;;;3.00;1.92;;;23.70;58.70;;;;;;4792545;29;20049;-69
2022/10/10 01:50:34;;;;;;;4.32;2.40;;;23.70;58.70;;;;;;4801519;29;20454;-69
2022/10/10 01:53:07;;;;;;;2.78;1.92;;;23.60;58.80;;;;;;4801277;29;20055;-68
2022/10/10 01:55:47;;;;;;;5.40;2.33;;;23.70;58.90;;;;;;4786218;29;20066;-67
2022/10/10 01:58:52;;;;;;;2.85;2.22;;;23.70;58.90;;;;;;4801252;29;20837;-69
2022/10/10 02:01:30;;;;;;;4.22;2.35;;;23.70;58.80;;;;;;4801232;29;20057;-68
2022/10/10 02:04:33;;;;;;;3.92;2.42;;;23.70;58.70;;;;;;4835088;29;20110;-69
2022/10/10 02:07:07;;;;;;;5.00;2.38;;;23.80;58.70;;;;;;4893045;29;20131;-69
2022/10/10 02:09:38;;;;;;;4.97;2.53;;;23.70;58.60;;;;;;4981592;28;20089;-69
2022/10/10 02:12:07;;;;;;;5.20;2.22;;;23.70;58.50;;;;;;4988744;28;20613;-69
2022/10/10 02:14:40;;;;;;;2.95;1.90;;;23.70;58.50;;;;;;4988889;28;20049;-69
2022/10/10 02:17:10;;;;;;;3.33;2.30;;;23.70;58.60;;;;;;4998234;28;20054;-69
2022/10/10 02:19:41;;;;;;;3.85;2.40;;;23.70;58.60;;;;;;5009488;28;20042;-70
2022/10/10 02:22:08;;;;;;;3.08;2.60;;;23.70;58.50;;;;;;5010871;28;20463;-69
2022/10/10 02:24:34;;;;;;;5.63;2.60;;;23.70;58.50;;;;;;5010991;28;20466;-69
2022/10/10 02:27:22;;;;;;;4.97;2.00;;;23.60;58.50;;;;;;5010721;28;20021;-69
2022/10/10 02:29:49;;;;;;;4.13;2.65;;;23.50;58.60;;;;;;5010906;28;20076;-69
2022/10/10 02:32:34;;;;;;;4.00;2.45;;;23.50;58.70;;;;;;5010753;28;20034;-69
2022/10/10 02:35:07;;;;;;;7.45;2.70;;;23.50;58.70;;;;;;5008224;28;20077;-69
2022/10/10 02:37:36;;;;;;;4.10;2.33;;;23.40;58.80;;;;;;5028062;28;20422;-70
2022/10/10 02:40:05;;;;;;;2.40;2.15;;;23.50;58.90;;;;;;5029902;28;20454;-68
2022/10/10 02:42:31;;;;;;;3.47;2.40;;;23.60;58.90;;;;;;5030472;28;20021;-69
2022/10/10 02:44:58;;;;;;;6.40;2.45;;;23.40;58.80;;;;;;5034005;28;20038;-69
2022/10/10 02:47:24;;;;;;;4.57;2.72;;;23.50;58.90;;;;;;5015903;28;20459;-70
2022/10/10 02:49:50;;;;;;;3.40;2.40;;;23.60;58.90;;;;;;5033908;28;20037;-70
2022/10/10 02:52:16;;;;;;;2.80;2.45;;;23.40;58.80;;;;;;5033652;28;20459;-69
2022/10/10 02:54:43;;;;;;;4.75;2.78;;;23.40;58.80;;;;;;5033734;28;20071;-69
2022/10/10 02:57:09;;;;;;;6.75;2.47;;;23.40;58.80;;;;;;5033402;28;20388;-69
2022/10/10 02:59:35;;;;;;;2.78;2.50;;;23.40;58.80;;;;;;5033644;28;20017;-69
2022/10/10 03:02:01;;;;;;;3.55;1.92;;;23.50;58.70;;;;;;5033596;28;20056;-69
2022/10/10 03:04:27;;;;;;;5.15;2.30;;;23.40;58.60;;;;;;5033779;28;20060;-69
2022/10/10 03:06:54;;;;;;;7.22;2.38;;;23.40;58.60;;;;;;5015963;28;20124;-68
2022/10/10 03:09:20;;;;;;;2.95;2.25;;;23.30;58.50;;;;;;5033553;28;20161;-69
2022/10/10 03:11:46;;;;;;;3.63;2.47;;;23.40;58.60;;;;;;5031988;28;20125;-68
2022/10/10 03:14:12;;;;;;;4.38;2.45;;;23.40;58.60;;;;;;5033864;28;20033;-69
2022/10/10 03:16:38;;;;;;;4.78;2.58;;;23.30;58.60;;;;;;5032206;28;20111;-70
2022/10/10 03:19:07;;;;;;;4.68;2.67;;;23.30;58.70;;;;;;5033279;28;20494;-69
2022/10/10 03:21:34;;;;;;;3.38;2.47;;;23.40;58.80;;;;;;5031996;28;20120;-69
2022/10/10 03:24:00;;;;;;;3.00;2.55;;;23.30;58.90;;;;;;5033179;28;20026;-69
2022/10/10 03:26:27;;;;;;;5.35;2.22;;;23.20;58.70;;;;;;5033048;28;20041;-69
2022/10/10 03:28:53;;;;;;;3.35;2.15;;;23.20;58.80;;;;;;5033017;28;20034;-68
2022/10/10 03:31:19;;;;;;;3.42;2.42;;;23.30;58.70;;;;;;5033395;28;20033;-69
2022/10/10 03:33:45;;;;;;;3.72;2.47;;;23.40;58.40;;;;;;5033123;28;20050;-68
2022/10/10 03:36:11;;;;;;;3.30;2.63;;;23.50;58.30;;;;;;5032372;28;20109;-69
2022/10/10 03:38:38;;;;;;;3.33;2.45;;;23.50;58.20;;;;;;5032722;28;20112;-69
2022/10/10 03:41:05;;;;;;;2.30;1.80;;;23.50;58.00;;;;;;5031967;28;20445;-72
2022/10/10 03:43:31;;;;;;;3.05;2.28;;;23.70;57.60;;;;;;5033252;28;20037;-70
2022/10/10 03:45:57;;;;;;;2.67;2.25;;;23.80;57.20;;;;;;5033360;28;20339;-71
2022/10/10 03:48:23;;;;;;;7.82;2.30;;;23.70;56.90;;;;;;5032758;28;20031;-69
2022/10/10 03:50:49;;;;;;;4.22;2.25;;;23.90;56.80;;;;;;5032837;28;20108;-68
2022/10/10 03:53:15;;;;;;;5.95;3.00;;;23.90;56.70;;;;;;5032216;28;20540;-68
2022/10/10 03:55:41;;;;;;;3.88;3.00;;;23.90;56.10;;;;;;5032220;28;20084;-69
2022/10/10 03:58:08;;;;;;;5.35;3.13;;;24.00;58.80;;;;;;5030655;28;20029;-69
2022/10/10 04:00:35;;;;;;;6.70;2.67;;;24.30;60.40;;;;;;5032670;28;20095;-68
2022/10/10 04:03:05;;;;;;;6.65;2.58;;;24.70;61.60;;;;;;5032431;28;20025;-69
2022/10/10 04:05:33;;;;;;;8.15;3.08;;;24.90;63.80;;;;;;5030712;28;20057;-72
2022/10/10 04:07:59;;;;;;;4.45;3.08;;;24.90;59.30;;;;;;5012764;28;20045;-71
2022/10/10 04:10:25;;;;;;;7.47;2.25;;;24.60;58.60;;;;;;5031723;28;20471;-70
2022/10/10 04:12:51;;;;;;;4.25;2.90;;;24.60;57.60;;;;;;5032043;28;20037;-69
2022/10/10 04:15:17;;;;;;;5.55;2.60;;;24.70;56.60;;;;;;5032120;28;20052;-70
2022/10/10 04:17:43;;;;;;;4.85;2.70;;;24.60;55.50;;;;;;5032145;28;20044;-70
2022/10/10 04:20:09;;;;;;;3.60;2.75;;;24.60;54.70;;;;;;5031840;28;20398;-71
2022/10/10 04:22:35;;;;;;;3.42;2.00;;;24.60;53.90;;;;;;5032029;28;20034;-70
2022/10/10 04:25:01;;;;;;;3.35;2.08;;;24.70;53.30;;;;;;5030675;28;20036;-70
2022/10/10 04:27:27;;;;;;;2.97;2.30;;;24.60;52.30;;;;;;5031949;28;20030;-70
2022/10/10 04:29:53;;;;;;;4.88;2.50;;;24.60;51.70;;;;;;5031946;28;20033;-69
2022/10/10 04:32:19;;;;;;;3.00;2.17;;;24.70;51.10;;;;;;5031672;28;20042;-69
2022/10/10 04:34:45;;;;;;;4.72;2.55;;;24.60;50.50;;;;;;5010880;28;20042;-70
2022/10/10 04:37:11;;;;;;;4.70;2.28;;;24.60;49.80;;;;;;5030672;28;20490;-72
2022/10/10 04:39:38;;;;;;;3.78;2.17;;;24.70;49.70;;;;;;5030411;28;20041;-72
2022/10/10 04:42:04;;;;;;;4.20;2.40;;;24.70;50.10;;;;;;5030354;28;20179;-73
2022/10/10 04:44:30;;;;;;;3.50;2.65;;;24.60;50.50;;;;;;5029473;28;20437;-72
2022/10/10 04:46:56;;;;;;;4.40;3.03;;;24.60;50.70;;;;;;5030725;28;20029;-69
2022/10/10 04:49:22;;;;;;;4.05;3.38;;;24.60;50.70;;;;;;5030904;28;20382;-68
2022/10/10 04:51:48;;;;;;;5.88;3.75;;;24.60;48.00;;;;;;5031009;28;20037;-68
2022/10/10 04:54:14;;;;;;;7.07;3.30;;;24.40;46.90;;;;;;5012487;28;20050;-68
2022/10/10 04:56:41;;;;;;;10.23;3.67;;;24.50;46.70;;;;;;5031194;28;20426;-69
2022/10/10 04:59:08;;;;;;;4.03;2.90;;;24.30;46.30;;;;;;5031222;28;20037;-70
2022/10/10 05:01:35;;;;;;;7.10;3.08;;;24.40;45.90;;;;;;5029726;28;20364;-68
2022/10/10 05:04:01;;;;;;;6.93;3.40;;;24.30;46.90;;;;;;5031310;28;20060;-69
2022/10/10 05:06:27;;;;;;;7.50;4.05;;;24.30;48.50;;;;;;5030230;28;20446;-69
2022/10/10 05:08:53;;;;;;;6.00;3.63;;;24.30;47.90;;;;;;5031190;28;20031;-69
2022/10/10 05:11:19;;;;;;;5.88;4.38;;;24.40;47.90;;;;;;5031157;28;20061;-68
2022/10/10 05:13:45;;;;;;;5.00;3.80;;;24.40;48.50;;;;;;5031193;28;20065;-69
2022/10/10 05:16:11;;;;;;;7.47;3.83;;;24.30;49.80;;;;;;5031199;28;20501;-67
2022/10/10 05:18:37;;;;;;;5.13;3.80;;;24.30;50.00;;;;;;5030854;28;20029;-68
2022/10/10 05:21:06;;;;;;;8.52;4.20;;;24.40;49.50;;;;;;5029598;28;20103;-68
2022/10/10 05:23:33;;;;;;;3.30;2.75;;;24.40;48.50;;;;;;5030801;28;20048;-68
2022/10/10 05:25:59;;;;;;;7.22;2.97;;;24.40;50.60;;;;;;5029102;28;20454;-67
2022/10/10 05:28:25;;;;;;;7.75;3.20;;;24.40;49.40;;;;;;5030668;28;20473;-69
2022/10/10 05:30:51;;;;;;;3.92;2.97;;;24.40;50.30;;;;;;5031132;28;20357;-70
2022/10/10 05:33:17;;;;;;;4.68;2.40;;;24.50;49.30;;;;;;5030133;28;20030;-69
2022/10/10 05:35:43;;;;;;;4.28;2.55;;;24.60;49.30;;;;;;5027824;28;20037;-69
2022/10/10 05:38:09;;;;;;;7.72;2.58;;;24.50;49.10;;;;;;5030180;28;20502;-69
2022/10/10 05:40:39;;;;;;;4.32;2.65;;;24.60;49.00;;;;;;5009032;28;20045;-70
2022/10/10 05:43:05;;;;;;;3.63;2.75;;;24.60;56.20;;;;;;5030430;28;20029;-70
2022/10/10 05:45:32;;;;;;;3.80;2.60;;;24.60;59.20;;;;;;5030524;28;20041;-69
2022/10/10 05:47:58;;;;;;;4.43;2.80;;;24.70;56.50;;;;;;5028903;28;20037;-70
2022/10/10 05:50:28;;;;;;;3.10;2.80;;;24.70;55.50;;;;;;5030256;28;20618;-67
2022/10/10 05:52:54;;;;;;;4.28;2.80;;;24.70;55.20;;;;;;5030923;28;20025;-69
2022/10/10 05:55:19;;;;;;;8.68;2.63;;;24.80;55.50;;;;;;5030570;28;20110;-70
2022/10/10 05:57:45;;;;;;;6.10;2.35;;;24.70;55.30;;;;;;5031018;28;20037;-70
2022/10/10 06:00:12;;;;;;;5.72;3.05;;;24.70;55.40;;;;;;5030551;28;20485;-70
2022/10/10 06:02:38;;;;;;;3.70;2.33;;;24.70;55.40;;;;;;5028116;28;20045;-69
2022/10/10 06:05:04;;;;;;;2.47;2.25;;;24.60;55.30;;;;;;5028559;28;20049;-69
2022/10/10 06:07:30;;;;;;;3.35;2.88;;;24.70;55.50;;;;;;5027802;28;20394;-67
2022/10/10 06:09:56;;;;;;;4.70;3.17;;;24.80;55.10;;;;;;5025409;28;20045;-68
2022/10/10 06:12:22;;;;;;;3.95;2.50;;;24.70;55.50;;;;;;5027972;28;20386;-70
2022/10/10 06:14:48;;;;;;;2.88;2.22;;;24.60;55.40;;;;;;5027424;28;20091;-74
2022/10/10 06:17:14;;;;;;;2.58;2.22;;;24.70;55.60;;;;;;5029127;28;20041;-68
2022/10/10 06:19:40;;;;;;;3.15;2.50;;;24.80;55.50;;;;;;5031275;28;20040;-69
2022/10/10 06:22:06;;;;;;;4.10;2.10;;;24.80;55.40;;;;;;4996204;28;20052;-67
2022/10/10 06:24:32;;;;;;;3.17;2.47;;;24.70;57.10;;;;;;5031574;28;20021;-67
2022/10/10 06:26:59;;;;;;;3.10;2.63;;;24.80;57.20;;;;;;5031622;28;20131;-69
2022/10/10 06:29:25;;;;;;;3.15;2.33;;;24.80;56.10;;;;;;5031079;28;20029;-73
2022/10/10 06:31:51;;;;;;;5.45;2.70;;;24.70;54.10;;;;;;5031372;28;20041;-74
2022/10/10 06:34:17;;;;;;;6.18;2.40;;;24.80;54.60;;;;;;5030285;28;20032;-68
2022/10/10 06:36:43;;;;;;;2.10;1.90;;;24.70;54.50;;;;;;5030956;28;20037;-68
2022/10/10 06:39:09;;;;;;;5.75;2.80;;;24.50;54.60;;;;;;5030373;28;20029;-70
2022/10/10 06:41:35;;;;;;;3.55;2.10;;;24.70;52.90;;;;;;5011640;28;20049;-74
2022/10/10 06:44:10;;;;;;;4.18;2.83;;;24.70;57.00;;;;;;5016034;28;20116;-70
2022/10/10 06:46:36;;;;;;;3.30;2.67;;;25.00;52.50;;;;;;5033613;28;20411;-71
2022/10/10 06:49:03;;;;;;;2.25;1.95;;;25.30;57.60;;;;;;5034114;28;20032;-72
2022/10/10 06:51:30;;;;;;;3.47;2.78;;;25.60;60.50;;;;;;5033777;28;20026;-71
2022/10/10 06:53:57;;;;;;;3.90;2.55;;;25.70;53.40;;;;;;5034269;28;20108;-71
2022/10/10 06:56:25;;;;;;;3.90;2.20;;;25.60;52.10;;;;;;5033738;28;20065;-70
2022/10/10 06:58:51;;;;;;;2.30;1.80;;;25.40;53.50;;;;;;5034585;28;20038;-66
2022/10/10 07:01:19;;;;;;;3.83;2.75;;;25.30;52.40;;;;;;5033674;28;20021;-70
2022/10/10 07:03:45;;;;;;;7.72;2.65;;;25.40;49.70;;;;;;5033820;28;20135;-70
2022/10/10 07:06:11;;;;;;;2.95;2.55;;;25.30;49.00;;;;;;5034131;28;20136;-70
2022/10/10 07:08:38;;;;;;;6.28;2.50;;;25.20;49.70;;;;;;5033845;28;20034;-73
2022/10/10 07:11:08;;;;;;;2.00;1.80;;;25.00;53.60;;;;;;5033620;28;20116;-75
2022/10/10 07:13:36;;;;;;;5.65;2.45;;;25.10;53.40;;;;;;5033380;28;20040;-73
2022/10/10 07:16:03;;;;;;;8.02;2.42;;;25.20;52.50;;;;;;5034003;28;20045;-70
2022/10/10 07:18:29;;;;;;;3.63;2.47;;;25.10;50.30;;;;;;5034435;28;20083;-69
2022/10/10 07:21:00;;;;;;;4.93;2.63;;;25.20;49.40;;;;;;5033607;28;20038;-69
2022/10/10 07:23:27;;;;;;;5.00;2.28;;;25.20;47.90;;;;;;5033802;28;20061;-68
2022/10/10 07:26:07;;;;;;;8.07;2.63;;;25.10;50.40;;;;;;5033633;28;20048;-67
2022/10/10 07:28:34;;;;;;;2.85;2.30;;;25.20;49.00;;;;;;5030663;28;20497;-67
2022/10/10 07:31:08;;;;;;;2.28;2.00;;;24.90;49.90;;;;;;5034234;28;20083;-68
2022/10/10 07:33:41;;;;;;;5.35;2.75;;;24.90;48.10;;;;;;5033615;28;20264;-68
2022/10/10 07:36:07;;;;;;;6.75;2.70;;;24.80;47.70;;;;;;5032608;28;20048;-65
2022/10/10 07:38:35;;;;;;;12.80;8.27;;;24.60;51.60;;;;;;5013701;28;20080;-66
2022/10/10 07:41:05;;;;;;;21.20;11.40;;;24.80;55.20;;;;;;5033511;28;20091;-67
2022/10/10 07:43:31;;;;;;;34.40;16.85;;;24.90;56.20;;;;;;5033325;28;20041;-67
2022/10/10 07:45:57;;;;;;;13.80;10.10;;;24.80;57.20;;;;;;5033170;28;20048;-68
2022/10/10 07:48:23;;;;;;;25.88;15.02;;;24.80;63.20;;;;;;5033013;28;20080;-69
2022/10/10 07:50:49;;;;;;;32.38;14.40;;;25.00;65.40;;;;;;5032300;28;20022;-68
2022/10/10 07:53:15;;;;;;;54.22;27.55;;;25.00;64.30;;;;;;5013433;28;20524;-70
2022/10/10 07:55:42;;;;;;;30.45;17.40;;;25.00;65.30;;;;;;5030531;28;20048;-67
2022/10/10 07:58:12;;;;;;;7.20;5.30;;;25.00;65.60;;;;;;5032139;28;20037;-67
2022/10/10 08:00:42;;;;;;;8.50;4.63;;;25.00;61.20;;;;;;5032045;28;20486;-68
2022/10/10 08:03:10;;;;;;;3.30;3.00;;;25.00;58.80;;;;;;5032270;28;20037;-68
2022/10/10 08:05:41;;;;;;;2.55;2.35;;;24.80;59.00;;;;;;5033277;28;20479;-67
2022/10/10 08:08:09;;;;;;;5.38;3.05;;;24.90;54.60;;;;;;5032477;28;20033;-67
2022/10/10 08:10:35;;;;;;;5.70;2.42;;;24.80;54.00;;;;;;5032904;28;20060;-67
2022/10/10 08:13:02;;;;;;;6.30;3.42;;;24.80;52.80;;;;;;5033530;28;20044;-66
2022/10/10 08:15:28;;;;;;;4.65;3.03;;;24.90;57.80;;;;;;5033881;28;20215;-67
2022/10/10 08:17:54;;;;;;;5.45;2.50;;;24.80;55.50;;;;;;5030354;28;20046;-68
2022/10/10 08:20:20;;;;;;;3.78;2.60;;;24.70;50.50;;;;;;5033221;28;20048;-66
2022/10/10 08:22:46;;;;;;;5.03;2.65;;;24.60;59.30;;;;;;5033016;28;20048;-67
2022/10/10 08:25:12;;;;;;;4.40;3.65;;;24.70;58.20;;;;;;5032546;28;20029;-66
2022/10/10 08:27:38;;;;;;;6.78;2.55;;;24.80;56.50;;;;;;5033254;28;20437;-66
2022/10/10 08:30:05;;;;;;;3.88;2.88;;;24.80;55.60;;;;;;5014720;28;20041;-68
2022/10/10 08:32:31;;;;;;;3.63;2.65;;;24.80;58.50;;;;;;5031781;28;20034;-69
2022/10/10 08:34:57;;;;;;;4.65;2.83;;;24.80;57.70;;;;;;5033494;28;20037;-68
2022/10/10 08:37:24;;;;;;;6.28;2.97;;;24.80;56.80;;;;;;5033229;28;20036;-69
2022/10/10 08:39:50;;;;;;;7.10;3.35;;;24.80;58.40;;;;;;5030871;28;20120;-69
2022/10/10 08:42:33;;;;;;;4.22;2.28;;;24.90;54.70;;;;;;5012831;28;20113;-69
2022/10/10 08:45:03;;;;;;;7.07;2.88;;;24.80;55.30;;;;;;5032160;28;20509;-69
2022/10/10 08:47:58;;;;;;;6.05;2.03;;;24.80;57.80;;;;;;5031925;28;20459;-70
2022/10/10 08:50:38;;;;;;;0.57;0.57;;;24.80;52.40;;;;;;4970188;28;20456;-71
2022/10/10 08:53:33;;;;;;;2.88;2.13;;;24.80;62.10;;;;;;4970361;28;20093;-69
2022/10/10 08:56:00;;;;;;;0.70;0.70;;;24.90;60.40;;;;;;4970013;28;20070;-70
2022/10/10 08:58:28;;;;;;;3.33;2.20;;;25.00;60.50;;;;;;4969656;28;20070;-69
2022/10/10 09:01:12;;;;;;;1.77;1.63;;;25.10;58.60;;;;;;4953365;28;20213;-68
2022/10/10 09:03:45;;;;;;;3.20;1.75;;;25.30;57.60;;;;;;4970024;28;20030;-68
2022/10/10 09:06:55;;;;;;;1.80;1.70;;;25.10;52.30;;;;;;4970022;28;20484;-69
2022/10/10 09:09:40;;;;;;;2.70;1.67;;;25.00;54.50;;;;;;4912397;29;20048;-69
2022/10/10 09:12:27;;;;;;;2.53;1.85;;;25.00;58.30;;;;;;4912905;29;20579;-69
2022/10/10 09:14:56;;;;;;;2.05;1.73;;;25.00;59.20;;;;;;4912047;29;20119;-70
2022/10/10 09:17:38;;;;;;;1.95;0.85;;;25.00;58.00;;;;;;4912291;29;20127;-68
2022/10/10 09:20:12;;;;;;;0.82;0.82;;;25.10;58.10;;;;;;4912196;29;20051;-68
2022/10/10 09:23:06;;;;;;;1.15;0.85;;;25.20;58.20;;;;;;4910246;29;20039;-69
2022/10/10 09:25:44;;;;;;;0.90;0.90;;;25.20;57.80;;;;;;4910896;29;20036;-70
2022/10/10 09:28:25;;;;;;;2.83;1.23;;;25.20;57.30;;;;;;4969545;28;20034;-71
2022/10/10 09:30:55;;;;;;;1.52;0.98;;;25.10;58.10;;;;;;4976241;28;20046;-69
2022/10/10 09:33:46;;;;;;;2.38;1.33;;;25.20;58.10;;;;;;4989372;28;20039;-69
2022/10/10 09:36:18;;;;;;;2.95;1.83;;;25.40;59.30;;;;;;4989464;28;20050;-69
2022/10/10 09:38:54;;;;;;;1.90;0.90;;;25.40;60.00;;;;;;4986056;28;20499;-69
2022/10/10 09:41:36;;;;;;;1.73;1.45;;;25.60;53.90;;;;;;5023368;28;20052;-69
2022/10/10 09:44:08;;;;;;;1.52;1.40;;;25.60;58.00;;;;;;5031460;28;20493;-69
2022/10/10 09:46:35;;;;;;;;;;;25.80;61.70;;;;;;5013139;28;20045;-69
2022/10/10 09:49:01;;;;;;;1.52;1.42;;;26.30;56.10;;;;;;5030968;28;20025;-69
2022/10/10 09:51:29;;;;;;;0.93;0.93;;;26.20;57.00;;;;;;5031307;28;20103;-70
2022/10/10 09:53:55;;;;;;;3.10;1.27;;;26.30;56.80;;;;;;5000408;28;20067;-71
2022/10/10 09:56:31;;;;;;;2.70;0.75;;;26.10;49.40;;;;;;5034821;28;20475;-70
2022/10/10 09:58:57;;;;;;;0.68;0.68;;;26.00;48.00;;;;;;5034634;28;20079;-72
2022/10/10 10:01:26;;;;;;;0.80;0.60;;;26.00;49.10;;;;;;5034887;28;20026;-73
2022/10/10 10:04:18;;;;;;;0.80;0.80;;;25.90;49.20;;;;;;5034825;28;20124;-71
2022/10/10 10:06:50;;;;;;;1.02;0.98;;;25.80;50.00;;;;;;4973210;28;20643;-71
2022/10/10 10:09:18;;;;;;;0.82;0.70;;;25.70;52.20;;;;;;4973583;28;20063;-74
2022/10/10 10:11:48;;;;;;;1.20;1.02;;;25.80;50.30;;;;;;4973515;28;20756;-72
2022/10/10 10:14:25;;;;;;;3.00;1.05;;;25.70;50.50;;;;;;4973465;28;20049;-71
2022/10/10 10:16:52;;;;;;;1.05;0.80;;;25.70;48.60;;;;;;4972681;28;20089;-69
2022/10/10 10:19:36;;;;;;;1.27;0.93;;;25.50;49.70;;;;;;4940101;28;20043;-71
2022/10/10 10:22:03;;;;;;;2.55;1.08;;;25.50;50.50;;;;;;4953568;29;20039;-70
2022/10/10 10:24:35;;;;;;;1.02;1.00;;;25.50;51.80;;;;;;4953990;29;20051;-71
2022/10/10 10:27:22;;;;;;;3.97;1.33;;;25.70;52.60;;;;;;4953597;29;20028;-71
2022/10/10 10:29:57;;;;;;;2.15;0.95;;;25.60;50.80;;;;;;4953259;29;20043;-71
2022/10/10 10:32:49;;;;;;;1.08;0.98;;;25.50;51.60;;;;;;4953224;29;20067;-70
2022/10/10 10:35:49;;;;;;;2.05;0.98;;;25.60;47.10;;;;;;4969562;28;20392;-70
2022/10/10 10:38:32;;;;;;;1.88;1.40;;;25.40;50.70;;;;;;4972710;28;20058;-71
2022/10/10 10:41:27;;;;;;;1.33;1.23;;;25.50;51.40;;;;;;4972770;28;20037;-69
2022/10/10 10:44:20;;;;;;;1.73;1.20;;;25.40;53.20;;;;;;5011718;28;20053;-70
2022/10/10 10:47:09;;;;;;;2.65;0.93;;;25.30;47.50;;;;;;5034068;28;20368;-70
2022/10/10 10:49:54;;;;;;;1.70;0.70;;;25.20;50.10;;;;;;5033815;28;20112;-69
2022/10/10 10:52:47;;;;;;;1.20;1.10;;;25.30;47.20;;;;;;5033774;28;20470;-71
2022/10/10 10:55:21;;;;;;;0.98;0.90;;;25.30;50.20;;;;;;5032623;28;20041;-71
2022/10/10 10:58:02;;;;;;;3.63;1.27;;;25.30;47.60;;;;;;5015347;28;20049;-72
2022/10/10 11:00:34;;;;;;;1.55;1.33;;;25.30;48.90;;;;;;5034357;28;20039;-71
2022/10/10 11:03:33;;;;;;;1.50;1.33;;;25.30;47.50;;;;;;5033329;28;20036;-71
2022/10/10 11:06:25;;;;;;;1.45;1.13;;;25.50;54.90;;;;;;5033674;28;20064;-71
2022/10/10 11:09:18;;;;;;;2.53;1.17;;;25.60;55.30;;;;;;5033743;28;20037;-70
2022/10/10 11:11:44;;;;;;;;;;;25.60;53.60;;;;;;5034457;28;20039;-71
2022/10/10 11:14:35;;;;;;;2.17;0.90;;;25.50;53.40;;;;;;5033103;28;20000;-67
2022/10/10 11:17:36;;;;;;;1.70;1.27;;;25.50;53.30;;;;;;5030064;28;20041;-68
2022/10/10 11:20:02;;;;;;;2.63;0.80;;;25.60;53.30;;;;;;5029883;28;20592;-70
2022/10/10 11:22:38;;;;;;;2.60;1.15;;;25.50;53.40;;;;;;5032933;28;20033;-71
2022/10/10 11:25:19;;;;;;;4.60;1.70;;;25.50;53.80;;;;;;5032817;28;20104;-70
2022/10/10 11:27:51;;;;;;;3.45;1.58;;;25.50;55.50;;;;;;5032839;28;20033;-69
2022/10/10 11:30:23;;;;;;;2.47;1.90;;;25.50;54.50;;;;;;5032108;28;20061;-70
2022/10/10 11:33:06;;;;;;;2.57;1.20;;;25.40;55.00;;;;;;5032876;28;20287;-70
2022/10/10 11:35:44;;;;;;;3.20;1.48;;;25.30;54.80;;;;;;5032943;28;20036;-70
2022/10/10 11:38:25;;;;;;;3.28;1.10;;;25.30;54.60;;;;;;5032986;28;20090;-72
2022/10/10 11:41:15;;;;;;;1.65;0.95;;;25.40;49.00;;;;;;5029976;28;20049;-69
2022/10/10 11:43:59;;;;;;;3.40;1.48;;;25.50;53.70;;;;;;4969854;28;20054;-72
2022/10/10 11:46:38;;;;;;;5.55;1.45;;;25.40;53.30;;;;;;4971234;28;20034;-73
2022/10/10 11:49:14;;;;;;;2.22;1.20;;;25.50;53.70;;;;;;4955060;28;20050;-70
2022/10/10 11:51:44;;;;;;;2.00;1.30;;;25.50;51.40;;;;;;4955415;28;20764;-70
2022/10/10 11:54:35;;;;;;;1.10;0.88;;;25.50;53.10;;;;;;4971348;28;20039;-69
2022/10/10 11:57:11;;;;;;;2.80;1.02;;;25.50;52.90;;;;;;4971198;28;20070;-71
2022/10/10 11:59:53;;;;;;;6.03;1.15;;;25.60;52.80;;;;;;4971035;28;20031;-73
2022/10/10 12:02:29;;;;;;;1.80;1.08;;;25.50;52.60;;;;;;4971112;28;20109;-71
2022/10/10 12:04:55;;;;;;;1.27;0.80;;;25.50;52.40;;;;;;4970833;28;20062;-72
2022/10/10 12:07:24;;;;;;;1.70;0.95;;;25.50;52.20;;;;;;4970899;28;20038;-72
2022/10/10 12:10:07;;;;;;;3.13;1.02;;;25.60;52.20;;;;;;4970442;28;20046;-71
2022/10/10 12:12:36;;;;;;;;;;;25.60;47.40;;;;;;4971345;28;20031;-72
2022/10/10 12:15:08;;;;;;;2.30;1.05;;;25.50;51.90;;;;;;4970141;28;19910;-72
2022/10/10 12:17:42;;;;;;;1.38;1.05;;;25.50;51.80;;;;;;4938504;28;20053;-73
2022/10/10 12:20:29;;;;;;;5.38;0.73;;;25.60;51.70;;;;;;4956010;28;20037;-73
2022/10/10 12:23:13;;;;;;;1.75;0.93;;;25.50;51.60;;;;;;5031794;28;20548;-76
2022/10/10 12:25:45;;;;;;;1.52;1.25;;;25.60;49.50;;;;;;5030687;28;20025;-76
2022/10/10 12:28:13;;;;;;;1.25;0.85;;;25.50;48.10;;;;;;5031333;28;20116;-74
2022/10/10 12:30:54;;;;;;;0.95;0.88;;;25.40;51.10;;;;;;5031700;28;20033;-74
2022/10/10 12:33:43;;;;;;;2.10;1.08;;;25.60;51.20;;;;;;5031888;28;20025;-74
2022/10/10 12:36:19;;;;;;;1.13;0.95;;;25.50;51.10;;;;;;5032334;28;20482;-74
2022/10/10 12:39:07;;;;;;;2.08;1.05;;;25.60;50.30;;;;;;5032754;28;20086;-73
2022/10/10 12:41:48;;;;;;;3.50;1.05;;;25.30;49.90;;;;;;5032220;28;20331;-69
2022/10/10 12:44:22;;;;;;;3.10;1.17;;;25.40;48.90;;;;;;5031688;28;20033;-72
2022/10/10 12:47:13;;;;;;;4.20;1.02;;;25.40;48.10;;;;;;5031400;28;20037;-72
2022/10/10 12:49:52;;;;;;;3.70;1.15;;;25.50;48.10;;;;;;5030164;28;20029;-73
2022/10/10 12:52:21;;;;;;;2.08;0.98;;;25.40;48.10;;;;;;5012690;28;20056;-72
2022/10/10 12:54:48;;;;;;;0.73;0.73;;;25.30;48.40;;;;;;5031183;28;20037;-72
2022/10/10 12:57:34;;;;;;;2.10;1.20;;;25.30;47.10;;;;;;5031495;28;20091;-72
2022/10/10 13:00:21;;;;;;;1.63;0.80;;;25.20;47.80;;;;;;5031147;28;20080;-71
2022/10/10 13:02:50;;;;;;;3.13;0.90;;;25.30;47.20;;;;;;5031096;28;20033;-72
2022/10/10 13:05:32;;;;;;;3.50;1.25;;;25.30;46.80;;;;;;5031411;28;20053;-71
2022/10/10 13:08:02;;;;;;;3.73;0.90;;;25.40;46.30;;;;;;5030794;28;20037;-71
2022/10/10 13:10:30;;;;;;;1.55;1.17;;;25.30;45.70;;;;;;5031033;28;20474;-71
2022/10/10 13:12:59;;;;;;;1.67;0.90;;;25.30;45.30;;;;;;5031105;28;20037;-72